Polk City, Florida
Current Conditions -  °F | °C
As of 4:53 PM on Thursday 18 Dec 2014 (Local Time) from KGIF Reporting Station
Clear Clear  
Wind Chill: 68°   Ceiling: Unl
Heat Index: 68°   Visibility: 10mi
Dew Point: 46°   Wind: 0mph
Humidity: 45%   Direction: NA
Pressure: 30.1"   Gusts: NA
Location:  28.18°N, 81.82°W
Report Text: KGIF 182153Z AUTO 00000KT 10SM CLR 20/08 A3010 RMK AO2 SLP190 T02000078
Loading
Personal Weather Stations






























Interactive Weather Map New forecast layout! Learn more

10-Day Weather Forecast

Advertisements
Track Severe Weather on mobile